sensor_id;sensor_type;location;lat;lon;timestamp;P1;durP1;ratioP1;P2;durP2;ratioP2
297;SDS011;133;49.626;9.680;2023-08-06T00:01:53;5.40;;;4.90;;
297;SDS011;133;49.626;9.680;2023-08-06T00:04:19;5.53;;;4.97;;
297;SDS011;133;49.626;9.680;2023-08-06T00:06:44;5.73;;;5.10;;
297;SDS011;133;49.626;9.680;2023-08-06T00:09:10;6.10;;;5.07;;
297;SDS011;133;49.626;9.680;2023-08-06T00:11:36;6.73;;;5.50;;
297;SDS011;133;49.626;9.680;2023-08-06T00:14:01;5.63;;;5.10;;
297;SDS011;133;49.626;9.680;2023-08-06T00:16:29;5.17;;;4.87;;
297;SDS011;133;49.626;9.680;2023-08-06T00:18:55;8.13;;;5.77;;
297;SDS011;133;49.626;9.680;2023-08-06T00:21:21;5.50;;;4.87;;
297;SDS011;133;49.626;9.680;2023-08-06T00:23:46;6.60;;;5.80;;
297;SDS011;133;49.626;9.680;2023-08-06T00:26:12;5.40;;;5.10;;
297;SDS011;133;49.626;9.680;2023-08-06T00:28:37;6.50;;;5.40;;
297;SDS011;133;49.626;9.680;2023-08-06T00:31:03;4.70;;;4.40;;
297;SDS011;133;49.626;9.680;2023-08-06T00:33:29;5.83;;;4.60;;
297;SDS011;133;49.626;9.680;2023-08-06T00:35:54;5.00;;;4.70;;
297;SDS011;133;49.626;9.680;2023-08-06T00:38:20;5.90;;;4.70;;
297;SDS011;133;49.626;9.680;2023-08-06T00:40:46;4.83;;;4.40;;
297;SDS011;133;49.626;9.680;2023-08-06T00:43:12;5.93;;;4.57;;
297;SDS011;133;49.626;9.680;2023-08-06T00:45:38;5.53;;;4.73;;
297;SDS011;133;49.626;9.680;2023-08-06T00:48:04;7.03;;;4.57;;
297;SDS011;133;49.626;9.680;2023-08-06T00:50:31;5.20;;;4.90;;
297;SDS011;133;49.626;9.680;2023-08-06T00:52:57;7.60;;;4.53;;
297;SDS011;133;49.626;9.680;2023-08-06T00:55:24;6.20;;;4.90;;
297;SDS011;133;49.626;9.680;2023-08-06T00:57:50;5.27;;;4.97;;
297;SDS011;133;49.626;9.680;2023-08-06T01:00:17;4.33;;;4.13;;
297;SDS011;133;49.626;9.680;2023-08-06T01:02:44;5.50;;;4.40;;
297;SDS011;133;49.626;9.680;2023-08-06T01:05:11;4.60;;;4.33;;
297;SDS011;133;49.626;9.680;2023-08-06T01:10:45;7.40;;;4.57;;
297;SDS011;133;49.626;9.680;2023-08-06T01:16:03;4.40;;;3.70;;
297;SDS011;133;49.626;9.680;2023-08-06T01:18:30;4.40;;;3.77;;
297;SDS011;133;49.626;9.680;2023-08-06T01:20:56;5.23;;;4.00;;
297;SDS011;133;49.626;9.680;2023-08-06T01:23:22;4.43;;;4.17;;
297;SDS011;133;49.626;9.680;2023-08-06T01:25:53;4.73;;;4.40;;
297;SDS011;133;49.626;9.680;2023-08-06T01:28:54;5.87;;;3.83;;
297;SDS011;133;49.626;9.680;2023-08-06T01:31:32;4.20;;;3.80;;
297;SDS011;133;49.626;9.680;2023-08-06T01:34:01;5.27;;;4.37;;
297;SDS011;133;49.626;9.680;2023-08-06T01:36:30;5.63;;;4.03;;
297;SDS011;133;49.626;9.680;2023-08-06T01:38:56;7.23;;;4.57;;
297;SDS011;133;49.626;9.680;2023-08-06T01:41:22;4.50;;;4.20;;
297;SDS011;133;49.626;9.680;2023-08-06T01:43:48;6.30;;;4.13;;
297;SDS011;133;49.626;9.680;2023-08-06T01:46:14;4.33;;;4.07;;
297;SDS011;133;49.626;9.680;2023-08-06T01:48:39;5.27;;;4.80;;
297;SDS011;133;49.626;9.680;2023-08-06T01:51:05;7.27;;;4.30;;
297;SDS011;133;49.626;9.680;2023-08-06T01:53:31;6.77;;;5.40;;
297;SDS011;133;49.626;9.680;2023-08-06T01:55:57;4.83;;;4.53;;
297;SDS011;133;49.626;9.680;2023-08-06T01:58:23;4.70;;;4.33;;
297;SDS011;133;49.626;9.680;2023-08-06T02:00:49;3.80;;;3.60;;
297;SDS011;133;49.626;9.680;2023-08-06T02:03:14;6.20;;;4.70;;
297;SDS011;133;49.626;9.680;2023-08-06T02:05:40;4.60;;;4.30;;
297;SDS011;133;49.626;9.680;2023-08-06T02:08:06;7.70;;;4.30;;
297;SDS011;133;49.626;9.680;2023-08-06T02:10:32;4.80;;;4.37;;
297;SDS011;133;49.626;9.680;2023-08-06T02:12:57;4.57;;;4.37;;
297;SDS011;133;49.626;9.680;2023-08-06T02:15:23;4.30;;;4.00;;
297;SDS011;133;49.626;9.680;2023-08-06T02:17:49;4.87;;;4.57;;
297;SDS011;133;49.626;9.680;2023-08-06T02:20:14;4.23;;;3.97;;
297;SDS011;133;49.626;9.680;2023-08-06T02:22:40;4.47;;;4.10;;
297;SDS011;133;49.626;9.680;2023-08-06T02:25:06;5.80;;;4.40;;
297;SDS011;133;49.626;9.680;2023-08-06T02:27:31;4.47;;;4.10;;
297;SDS011;133;49.626;9.680;2023-08-06T02:29:57;4.57;;;4.30;;
297;SDS011;133;49.626;9.680;2023-08-06T02:32:23;5.30;;;4.60;;
297;SDS011;133;49.626;9.680;2023-08-06T02:34:48;4.33;;;4.03;;
297;SDS011;133;49.626;9.680;2023-08-06T02:37:14;4.50;;;4.20;;
297;SDS011;133;49.626;9.680;2023-08-06T02:39:39;5.00;;;4.70;;
297;SDS011;133;49.626;9.680;2023-08-06T02:42:06;4.50;;;4.20;;
297;SDS011;133;49.626;9.680;2023-08-06T02:44:33;5.67;;;4.90;;
297;SDS011;133;49.626;9.680;2023-08-06T02:46:59;4.03;;;3.83;;
297;SDS011;133;49.626;9.680;2023-08-06T02:49:25;7.47;;;4.23;;
297;SDS011;133;49.626;9.680;2023-08-06T02:51:50;3.80;;;3.60;;
297;SDS011;133;49.626;9.680;2023-08-06T02:54:17;4.40;;;4.10;;
297;SDS011;133;49.626;9.680;2023-08-06T02:56:45;4.93;;;4.23;;
297;SDS011;133;49.626;9.680;2023-08-06T02:59:12;4.50;;;4.20;;
297;SDS011;133;49.626;9.680;2023-08-06T03:01:38;5.60;;;4.20;;
297;SDS011;133;49.626;9.680;2023-08-06T03:04:03;10.07;;;4.37;;
297;SDS011;133;49.626;9.680;2023-08-06T03:06:29;4.63;;;3.60;;
297;SDS011;133;49.626;9.680;2023-08-06T03:08:55;4.33;;;4.03;;
297;SDS011;133;49.626;9.680;2023-08-06T03:11:21;3.87;;;3.70;;
297;SDS011;133;49.626;9.680;2023-08-06T03:13:47;3.90;;;3.70;;
297;SDS011;133;49.626;9.680;2023-08-06T03:16:13;6.47;;;3.63;;
297;SDS011;133;49.626;9.680;2023-08-06T03:18:39;4.47;;;4.17;;
297;SDS011;133;49.626;9.680;2023-08-06T03:21:04;4.47;;;3.87;;
297;SDS011;133;49.626;9.680;2023-08-06T03:23:30;4.10;;;3.90;;
297;SDS011;133;49.626;9.680;2023-08-06T03:25:56;3.90;;;3.73;;
297;SDS011;133;49.626;9.680;2023-08-06T03:28:25;4.17;;;3.93;;
297;SDS011;133;49.626;9.680;2023-08-06T03:30:58;5.00;;;4.10;;
297;SDS011;133;49.626;9.680;2023-08-06T03:33:27;4.23;;;3.97;;
297;SDS011;133;49.626;9.680;2023-08-06T03:35:52;4.40;;;4.10;;
297;SDS011;133;49.626;9.680;2023-08-06T03:38:18;4.17;;;3.93;;
297;SDS011;133;49.626;9.680;2023-08-06T03:40:44;3.50;;;3.30;;
297;SDS011;133;49.626;9.680;2023-08-06T03:43:10;4.80;;;4.50;;
297;SDS011;133;49.626;9.680;2023-08-06T03:45:36;5.27;;;4.83;;
297;SDS011;133;49.626;9.680;2023-08-06T03:48:02;6.33;;;4.40;;
297;SDS011;133;49.626;9.680;2023-08-06T03:50:27;5.40;;;4.30;;
297;SDS011;133;49.626;9.680;2023-08-06T03:52:53;6.03;;;4.40;;
297;SDS011;133;49.626;9.680;2023-08-06T03:55:19;4.90;;;3.80;;
297;SDS011;133;49.626;9.680;2023-08-06T03:57:44;4.50;;;4.20;;
297;SDS011;133;49.626;9.680;2023-08-06T04:00:10;4.60;;;4.30;;
297;SDS011;133;49.626;9.680;2023-08-06T04:02:39;11.07;;;4.77;;
297;SDS011;133;49.626;9.680;2023-08-06T04:05:04;5.73;;;4.60;;
297;SDS011;133;49.626;9.680;2023-08-06T04:07:30;5.90;;;4.70;;
297;SDS011;133;49.626;9.680;2023-08-06T04:10:00;4.77;;;4.50;;
297;SDS011;133;49.626;9.680;2023-08-06T04:12:27;7.07;;;4.40;;
297;SDS011;133;49.626;9.680;2023-08-06T04:14:53;6.33;;;4.53;;
297;SDS011;133;49.626;9.680;2023-08-06T04:17:20;5.83;;;4.33;;
297;SDS011;133;49.626;9.680;2023-08-06T04:19:53;7.30;;;4.47;;
297;SDS011;133;49.626;9.680;2023-08-06T04:22:19;4.30;;;4.00;;
297;SDS011;133;49.626;9.680;2023-08-06T04:24:46;4.67;;;4.37;;
297;SDS011;133;49.626;9.680;2023-08-06T04:27:12;7.87;;;4.53;;
297;SDS011;133;49.626;9.680;2023-08-06T04:29:38;5.60;;;5.20;;
297;SDS011;133;49.626;9.680;2023-08-06T04:32:08;8.40;;;4.53;;
297;SDS011;133;49.626;9.680;2023-08-06T04:34:34;5.30;;;4.63;;
297;SDS011;133;49.626;9.680;2023-08-06T04:37:01;4.80;;;4.40;;
297;SDS011;133;49.626;9.680;2023-08-06T04:39:27;5.90;;;4.67;;
297;SDS011;133;49.626;9.680;2023-08-06T04:41:52;4.77;;;4.40;;
297;SDS011;133;49.626;9.680;2023-08-06T04:44:18;4.33;;;4.03;;
297;SDS011;133;49.626;9.680;2023-08-06T04:46:44;7.50;;;4.17;;
297;SDS011;133;49.626;9.680;2023-08-06T04:49:09;7.27;;;4.33;;
297;SDS011;133;49.626;9.680;2023-08-06T04:51:35;5.43;;;3.77;;
297;SDS011;133;49.626;9.680;2023-08-06T04:54:01;5.87;;;4.20;;
297;SDS011;133;49.626;9.680;2023-08-06T04:56:26;4.07;;;3.87;;
297;SDS011;133;49.626;9.680;2023-08-06T04:58:52;4.60;;;3.87;;
297;SDS011;133;49.626;9.680;2023-08-06T05:01:18;5.07;;;3.80;;
297;SDS011;133;49.626;9.680;2023-08-06T05:03:44;4.87;;;4.20;;
297;SDS011;133;49.626;9.680;2023-08-06T05:06:09;4.37;;;3.60;;
297;SDS011;133;49.626;9.680;2023-08-06T05:08:35;6.13;;;3.97;;
297;SDS011;133;49.626;9.680;2023-08-06T05:11:01;4.47;;;3.80;;
297;SDS011;133;49.626;9.680;2023-08-06T05:13:27;8.77;;;4.40;;
297;SDS011;133;49.626;9.680;2023-08-06T05:15:55;5.93;;;3.43;;
297;SDS011;133;49.626;9.680;2023-08-06T05:18:21;5.33;;;4.10;;
297;SDS011;133;49.626;9.680;2023-08-06T05:20:47;4.43;;;4.13;;
297;SDS011;133;49.626;9.680;2023-08-06T05:23:12;7.10;;;4.10;;
297;SDS011;133;49.626;9.680;2023-08-06T05:25:38;5.33;;;3.80;;
297;SDS011;133;49.626;9.680;2023-08-06T05:28:04;4.50;;;3.83;;
297;SDS011;133;49.626;9.680;2023-08-06T05:30:30;5.10;;;3.53;;
297;SDS011;133;49.626;9.680;2023-08-06T05:32:56;7.30;;;3.63;;
297;SDS011;133;49.626;9.680;2023-08-06T05:35:22;4.63;;;3.80;;
297;SDS011;133;49.626;9.680;2023-08-06T05:37:48;6.10;;;3.90;;
297;SDS011;133;49.626;9.680;2023-08-06T05:40:14;4.97;;;3.50;;
297;SDS011;133;49.626;9.680;2023-08-06T05:42:40;5.67;;;3.43;;
297;SDS011;133;49.626;9.680;2023-08-06T05:45:06;6.63;;;3.50;;
297;SDS011;133;49.626;9.680;2023-08-06T05:47:32;12.73;;;3.47;;
297;SDS011;133;49.626;9.680;2023-08-06T05:49:58;4.93;;;3.60;;
297;SDS011;133;49.626;9.680;2023-08-06T05:52:24;3.90;;;3.27;;
297;SDS011;133;49.626;9.680;2023-08-06T05:54:49;3.73;;;3.00;;
297;SDS011;133;49.626;9.680;2023-08-06T05:57:15;6.17;;;3.30;;
297;SDS011;133;49.626;9.680;2023-08-06T05:59:41;4.87;;;2.93;;
297;SDS011;133;49.626;9.680;2023-08-06T06:02:07;5.27;;;3.13;;
297;SDS011;133;49.626;9.680;2023-08-06T06:04:32;3.10;;;2.90;;
297;SDS011;133;49.626;9.680;2023-08-06T06:06:58;3.60;;;3.20;;
297;SDS011;133;49.626;9.680;2023-08-06T06:09:23;4.80;;;3.80;;
297;SDS011;133;49.626;9.680;2023-08-06T06:11:49;7.43;;;3.10;;
297;SDS011;133;49.626;9.680;2023-08-06T06:14:15;3.93;;;3.23;;
297;SDS011;133;49.626;9.680;2023-08-06T06:16:42;4.53;;;2.80;;
297;SDS011;133;49.626;9.680;2023-08-06T06:19:07;4.13;;;3.10;;
297;SDS011;133;49.626;9.680;2023-08-06T06:21:33;3.00;;;2.90;;
297;SDS011;133;49.626;9.680;2023-08-06T06:23:59;9.40;;;2.97;;
297;SDS011;133;49.626;9.680;2023-08-06T06:26:24;3.77;;;3.20;;
297;SDS011;133;49.626;9.680;2023-08-06T06:28:50;5.10;;;2.77;;
297;SDS011;133;49.626;9.680;2023-08-06T06:31:15;6.10;;;3.10;;
297;SDS011;133;49.626;9.680;2023-08-06T06:33:41;5.27;;;3.13;;
297;SDS011;133;49.626;9.680;2023-08-06T06:36:07;3.27;;;2.90;;
297;SDS011;133;49.626;9.680;2023-08-06T06:38:33;2.90;;;2.70;;
297;SDS011;133;49.626;9.680;2023-08-06T06:40:59;4.20;;;2.90;;
297;SDS011;133;49.626;9.680;2023-08-06T06:43:25;3.03;;;2.83;;
297;SDS011;133;49.626;9.680;2023-08-06T06:46:00;2.80;;;2.60;;
297;SDS011;133;49.626;9.680;2023-08-06T06:48:26;2.87;;;2.50;;
297;SDS011;133;49.626;9.680;2023-08-06T06:50:53;5.07;;;2.70;;
297;SDS011;133;49.626;9.680;2023-08-06T06:53:19;2.93;;;2.73;;
297;SDS011;133;49.626;9.680;2023-08-06T06:55:44;2.73;;;2.40;;
297;SDS011;133;49.626;9.680;2023-08-06T06:58:10;3.13;;;2.57;;
297;SDS011;133;49.626;9.680;2023-08-06T07:00:36;3.30;;;3.10;;
297;SDS011;133;49.626;9.680;2023-08-06T07:03:02;4.77;;;2.50;;
297;SDS011;133;49.626;9.680;2023-08-06T07:05:28;2.87;;;2.70;;
297;SDS011;133;49.626;9.680;2023-08-06T07:07:54;2.50;;;2.30;;
297;SDS011;133;49.626;9.680;2023-08-06T07:10:19;3.90;;;2.70;;
297;SDS011;133;49.626;9.680;2023-08-06T07:12:45;7.90;;;2.80;;
297;SDS011;133;49.626;9.680;2023-08-06T07:15:11;3.03;;;2.67;;
297;SDS011;133;49.626;9.680;2023-08-06T07:17:36;4.30;;;3.20;;
297;SDS011;133;49.626;9.680;2023-08-06T07:20:02;10.23;;;3.10;;
297;SDS011;133;49.626;9.680;2023-08-06T07:22:29;2.60;;;2.40;;
297;SDS011;133;49.626;9.680;2023-08-06T07:24:54;4.10;;;2.80;;
297;SDS011;133;49.626;9.680;2023-08-06T07:27:20;5.97;;;2.73;;
297;SDS011;133;49.626;9.680;2023-08-06T07:29:46;4.50;;;2.70;;
297;SDS011;133;49.626;9.680;2023-08-06T07:32:13;4.60;;;2.73;;
297;SDS011;133;49.626;9.680;2023-08-06T07:34:38;3.87;;;2.63;;
297;SDS011;133;49.626;9.680;2023-08-06T07:37:04;2.57;;;2.40;;
297;SDS011;133;49.626;9.680;2023-08-06T07:39:30;4.23;;;2.47;;
297;SDS011;133;49.626;9.680;2023-08-06T07:41:56;2.60;;;2.20;;
297;SDS011;133;49.626;9.680;2023-08-06T07:44:22;2.27;;;2.07;;
297;SDS011;133;49.626;9.680;2023-08-06T07:46:48;2.50;;;2.30;;
297;SDS011;133;49.626;9.680;2023-08-06T07:49:14;2.77;;;2.40;;
297;SDS011;133;49.626;9.680;2023-08-06T07:51:40;2.20;;;2.00;;
297;SDS011;133;49.626;9.680;2023-08-06T07:54:06;1.80;;;1.70;;
297;SDS011;133;49.626;9.680;2023-08-06T07:56:31;2.00;;;1.90;;
297;SDS011;133;49.626;9.680;2023-08-06T07:58:57;2.07;;;1.90;;
297;SDS011;133;49.626;9.680;2023-08-06T08:01:23;1.97;;;1.87;;
297;SDS011;133;49.626;9.680;2023-08-06T08:03:48;2.13;;;1.97;;
297;SDS011;133;49.626;9.680;2023-08-06T08:06:14;3.33;;;1.80;;
297;SDS011;133;49.626;9.680;2023-08-06T08:08:40;2.50;;;1.73;;
297;SDS011;133;49.626;9.680;2023-08-06T08:11:05;2.00;;;1.83;;
297;SDS011;133;49.626;9.680;2023-08-06T08:13:31;1.97;;;1.60;;
297;SDS011;133;49.626;9.680;2023-08-06T08:15:58;1.90;;;1.80;;
297;SDS011;133;49.626;9.680;2023-08-06T08:18:24;2.13;;;1.80;;
297;SDS011;133;49.626;9.680;2023-08-06T08:20:50;4.90;;;1.90;;
297;SDS011;133;49.626;9.680;2023-08-06T08:23:15;4.33;;;1.80;;
297;SDS011;133;49.626;9.680;2023-08-06T08:25:41;1.80;;;1.70;;
297;SDS011;133;49.626;9.680;2023-08-06T08:28:07;1.70;;;1.60;;
297;SDS011;133;49.626;9.680;2023-08-06T08:30:32;2.80;;;1.90;;
297;SDS011;133;49.626;9.680;2023-08-06T08:32:58;1.70;;;1.60;;
297;SDS011;133;49.626;9.680;2023-08-06T08:35:24;2.00;;;1.90;;
297;SDS011;133;49.626;9.680;2023-08-06T08:37:49;1.80;;;1.70;;
297;SDS011;133;49.626;9.680;2023-08-06T08:40:15;1.80;;;1.70;;
297;SDS011;133;49.626;9.680;2023-08-06T08:42:41;1.87;;;1.77;;
297;SDS011;133;49.626;9.680;2023-08-06T08:45:11;2.37;;;1.60;;
297;SDS011;133;49.626;9.680;2023-08-06T08:47:41;1.60;;;1.50;;
297;SDS011;133;49.626;9.680;2023-08-06T08:50:08;1.80;;;1.70;;
297;SDS011;133;49.626;9.680;2023-08-06T08:52:35;1.60;;;1.50;;
297;SDS011;133;49.626;9.680;2023-08-06T08:55:03;1.53;;;1.43;;
297;SDS011;133;49.626;9.680;2023-08-06T08:57:29;1.90;;;1.60;;
297;SDS011;133;49.626;9.680;2023-08-06T08:59:54;1.67;;;1.57;;
297;SDS011;133;49.626;9.680;2023-08-06T09:02:21;1.60;;;1.50;;
297;SDS011;133;49.626;9.680;2023-08-06T09:04:48;1.70;;;1.63;;
297;SDS011;133;49.626;9.680;2023-08-06T09:07:16;1.70;;;1.60;;
297;SDS011;133;49.626;9.680;2023-08-06T09:09:45;1.70;;;1.60;;
297;SDS011;133;49.626;9.680;2023-08-06T09:12:14;1.70;;;1.60;;
297;SDS011;133;49.626;9.680;2023-08-06T09:14:41;4.30;;;1.60;;
297;SDS011;133;49.626;9.680;2023-08-06T09:17:07;1.40;;;1.30;;
297;SDS011;133;49.626;9.680;2023-08-06T09:19:34;1.60;;;1.50;;
297;SDS011;133;49.626;9.680;2023-08-06T09:21:59;1.40;;;1.30;;
297;SDS011;133;49.626;9.680;2023-08-06T09:24:25;1.50;;;1.40;;
297;SDS011;133;49.626;9.680;2023-08-06T09:26:53;1.30;;;1.30;;
297;SDS011;133;49.626;9.680;2023-08-06T09:29:19;1.47;;;1.37;;
297;SDS011;133;49.626;9.680;2023-08-06T09:31:49;1.23;;;1.20;;
297;SDS011;133;49.626;9.680;2023-08-06T09:34:19;1.40;;;1.30;;
297;SDS011;133;49.626;9.680;2023-08-06T09:36:47;1.30;;;1.20;;
297;SDS011;133;49.626;9.680;2023-08-06T09:39:16;1.40;;;1.30;;
297;SDS011;133;49.626;9.680;2023-08-06T09:41:43;1.30;;;1.20;;
297;SDS011;133;49.626;9.680;2023-08-06T09:44:16;1.80;;;1.30;;
297;SDS011;133;49.626;9.680;2023-08-06T09:46:46;1.47;;;1.37;;
297;SDS011;133;49.626;9.680;2023-08-06T09:49:20;1.80;;;1.40;;
297;SDS011;133;49.626;9.680;2023-08-06T09:51:50;1.63;;;1.40;;
297;SDS011;133;49.626;9.680;2023-08-06T09:54:18;1.50;;;1.40;;
297;SDS011;133;49.626;9.680;2023-08-06T09:56:44;2.33;;;1.60;;
297;SDS011;133;49.626;9.680;2023-08-06T09:59:10;1.40;;;1.30;;
297;SDS011;133;49.626;9.680;2023-08-06T10:01:38;1.47;;;1.37;;
297;SDS011;133;49.626;9.680;2023-08-06T10:04:04;1.43;;;1.33;;
297;SDS011;133;49.626;9.680;2023-08-06T10:06:33;1.40;;;1.30;;
297;SDS011;133;49.626;9.680;2023-08-06T10:09:05;6.30;;;1.93;;
297;SDS011;133;49.626;9.680;2023-08-06T10:11:30;1.47;;;1.40;;
297;SDS011;133;49.626;9.680;2023-08-06T10:14:06;1.70;;;1.57;;
297;SDS011;133;49.626;9.680;2023-08-06T10:16:36;1.73;;;1.60;;
297;SDS011;133;49.626;9.680;2023-08-06T10:19:04;1.40;;;1.30;;
297;SDS011;133;49.626;9.680;2023-08-06T10:21:32;1.40;;;1.30;;
297;SDS011;133;49.626;9.680;2023-08-06T10:23:58;1.40;;;1.30;;
297;SDS011;133;49.626;9.680;2023-08-06T10:26:27;1.50;;;1.40;;
297;SDS011;133;49.626;9.680;2023-08-06T10:28:53;1.53;;;1.43;;
297;SDS011;133;49.626;9.680;2023-08-06T10:31:18;1.47;;;1.37;;
297;SDS011;133;49.626;9.680;2023-08-06T10:33:45;2.00;;;1.40;;
297;SDS011;133;49.626;9.680;2023-08-06T10:36:12;3.33;;;1.30;;
297;SDS011;133;49.626;9.680;2023-08-06T10:38:45;1.50;;;1.40;;
297;SDS011;133;49.626;9.680;2023-08-06T10:41:16;1.63;;;1.40;;
297;SDS011;133;49.626;9.680;2023-08-06T10:43:52;1.57;;;1.30;;
297;SDS011;133;49.626;9.680;2023-08-06T10:46:33;1.33;;;1.23;;
297;SDS011;133;49.626;9.680;2023-08-06T10:48:58;1.40;;;1.30;;
297;SDS011;133;49.626;9.680;2023-08-06T10:51:24;3.43;;;1.30;;
297;SDS011;133;49.626;9.680;2023-08-06T10:54:08;1.20;;;1.10;;
297;SDS011;133;49.626;9.680;2023-08-06T10:56:39;1.43;;;1.13;;
297;SDS011;133;49.626;9.680;2023-08-06T10:59:07;1.13;;;1.03;;
297;SDS011;133;49.626;9.680;2023-08-06T11:01:35;1.20;;;1.10;;
297;SDS011;133;49.626;9.680;2023-08-06T11:04:01;1.20;;;1.10;;
297;SDS011;133;49.626;9.680;2023-08-06T11:06:28;1.20;;;1.10;;
297;SDS011;133;49.626;9.680;2023-08-06T11:08:54;1.30;;;1.20;;
297;SDS011;133;49.626;9.680;2023-08-06T11:11:20;1.20;;;1.10;;
297;SDS011;133;49.626;9.680;2023-08-06T11:13:48;1.30;;;1.23;;
297;SDS011;133;49.626;9.680;2023-08-06T11:16:21;1.73;;;1.63;;
297;SDS011;133;49.626;9.680;2023-08-06T11:18:49;1.30;;;1.20;;
297;SDS011;133;49.626;9.680;2023-08-06T11:21:18;1.50;;;1.40;;
297;SDS011;133;49.626;9.680;2023-08-06T11:23:44;1.37;;;1.27;;
297;SDS011;133;49.626;9.680;2023-08-06T11:26:10;2.03;;;1.47;;
297;SDS011;133;49.626;9.680;2023-08-06T11:28:36;2.67;;;1.30;;
297;SDS011;133;49.626;9.680;2023-08-06T11:31:01;1.40;;;1.30;;
297;SDS011;133;49.626;9.680;2023-08-06T11:33:28;1.40;;;1.30;;
297;SDS011;133;49.626;9.680;2023-08-06T11:35:55;2.10;;;1.30;;
297;SDS011;133;49.626;9.680;2023-08-06T11:38:21;1.30;;;1.20;;
297;SDS011;133;49.626;9.680;2023-08-06T11:40:50;1.20;;;1.10;;
297;SDS011;133;49.626;9.680;2023-08-06T11:43:17;1.23;;;1.13;;
297;SDS011;133;49.626;9.680;2023-08-06T11:45:47;1.30;;;1.20;;
297;SDS011;133;49.626;9.680;2023-08-06T11:48:18;1.10;;;1.00;;
297;SDS011;133;49.626;9.680;2023-08-06T11:50:44;1.30;;;1.20;;
297;SDS011;133;49.626;9.680;2023-08-06T11:53:12;1.20;;;1.10;;
297;SDS011;133;49.626;9.680;2023-08-06T11:55:39;1.20;;;1.10;;
297;SDS011;133;49.626;9.680;2023-08-06T11:58:05;1.20;;;1.10;;
297;SDS011;133;49.626;9.680;2023-08-06T12:00:31;1.20;;;1.10;;
297;SDS011;133;49.626;9.680;2023-08-06T12:02:56;3.47;;;1.20;;
297;SDS011;133;49.626;9.680;2023-08-06T12:05:23;1.20;;;1.10;;
297;SDS011;133;49.626;9.680;2023-08-06T12:07:57;1.27;;;1.17;;
297;SDS011;133;49.626;9.680;2023-08-06T12:10:24;1.30;;;1.20;;
297;SDS011;133;49.626;9.680;2023-08-06T12:12:51;1.40;;;1.30;;
297;SDS011;133;49.626;9.680;2023-08-06T12:15:18;1.20;;;1.10;;
297;SDS011;133;49.626;9.680;2023-08-06T12:17:44;1.30;;;1.20;;
297;SDS011;133;49.626;9.680;2023-08-06T12:20:09;1.40;;;1.30;;
297;SDS011;133;49.626;9.680;2023-08-06T12:22:35;1.30;;;1.20;;
297;SDS011;133;49.626;9.680;2023-08-06T12:25:05;1.30;;;1.20;;
297;SDS011;133;49.626;9.680;2023-08-06T12:27:36;1.23;;;1.10;;
297;SDS011;133;49.626;9.680;2023-08-06T12:30:06;1.20;;;1.10;;
297;SDS011;133;49.626;9.680;2023-08-06T12:32:32;1.43;;;1.33;;
297;SDS011;133;49.626;9.680;2023-08-06T12:34:59;1.20;;;1.10;;
297;SDS011;133;49.626;9.680;2023-08-06T12:37:25;1.20;;;1.10;;
297;SDS011;133;49.626;9.680;2023-08-06T12:39:51;1.20;;;1.10;;
297;SDS011;133;49.626;9.680;2023-08-06T12:42:16;1.20;;;1.10;;
297;SDS011;133;49.626;9.680;2023-08-06T12:44:42;2.10;;;1.20;;
297;SDS011;133;49.626;9.680;2023-08-06T12:47:08;1.30;;;1.20;;
297;SDS011;133;49.626;9.680;2023-08-06T12:49:34;1.20;;;1.10;;
297;SDS011;133;49.626;9.680;2023-08-06T12:51:59;1.20;;;1.10;;
297;SDS011;133;49.626;9.680;2023-08-06T12:54:25;1.30;;;1.20;;
297;SDS011;133;49.626;9.680;2023-08-06T12:56:52;1.40;;;1.30;;
297;SDS011;133;49.626;9.680;2023-08-06T12:59:17;1.33;;;1.23;;
297;SDS011;133;49.626;9.680;2023-08-06T13:01:43;1.30;;;1.20;;
297;SDS011;133;49.626;9.680;2023-08-06T13:04:09;1.33;;;1.23;;
297;SDS011;133;49.626;9.680;2023-08-06T13:06:36;1.40;;;1.30;;
297;SDS011;133;49.626;9.680;2023-08-06T13:09:08;1.60;;;1.30;;
297;SDS011;133;49.626;9.680;2023-08-06T13:11:35;1.50;;;1.40;;
297;SDS011;133;49.626;9.680;2023-08-06T13:14:09;1.37;;;1.27;;
297;SDS011;133;49.626;9.680;2023-08-06T13:16:37;1.40;;;1.30;;
297;SDS011;133;49.626;9.680;2023-08-06T13:19:04;1.60;;;1.50;;
297;SDS011;133;49.626;9.680;2023-08-06T13:21:32;2.90;;;1.40;;
297;SDS011;133;49.626;9.680;2023-08-06T13:24:06;1.40;;;1.30;;
297;SDS011;133;49.626;9.680;2023-08-06T13:26:33;1.50;;;1.40;;
297;SDS011;133;49.626;9.680;2023-08-06T13:28:59;1.60;;;1.43;;
297;SDS011;133;49.626;9.680;2023-08-06T13:31:25;1.70;;;1.60;;
297;SDS011;133;49.626;9.680;2023-08-06T13:33:51;4.30;;;1.40;;
297;SDS011;133;49.626;9.680;2023-08-06T13:36:19;1.90;;;1.40;;
297;SDS011;133;49.626;9.680;2023-08-06T13:38:44;1.90;;;1.80;;
297;SDS011;133;49.626;9.680;2023-08-06T13:41:10;1.70;;;1.60;;
297;SDS011;133;49.626;9.680;2023-08-06T13:43:36;1.77;;;1.67;;
297;SDS011;133;49.626;9.680;2023-08-06T13:46:01;1.60;;;1.50;;
297;SDS011;133;49.626;9.680;2023-08-06T13:48:27;1.60;;;1.50;;
297;SDS011;133;49.626;9.680;2023-08-06T13:50:53;1.60;;;1.50;;
297;SDS011;133;49.626;9.680;2023-08-06T13:53:18;1.70;;;1.60;;
297;SDS011;133;49.626;9.680;2023-08-06T13:55:44;1.50;;;1.40;;
297;SDS011;133;49.626;9.680;2023-08-06T13:58:09;1.77;;;1.67;;
297;SDS011;133;49.626;9.680;2023-08-06T14:00:36;2.00;;;1.70;;
297;SDS011;133;49.626;9.680;2023-08-06T14:03:01;1.60;;;1.50;;
297;SDS011;133;49.626;9.680;2023-08-06T14:05:27;1.80;;;1.70;;
297;SDS011;133;49.626;9.680;2023-08-06T14:07:53;1.90;;;1.80;;
297;SDS011;133;49.626;9.680;2023-08-06T14:10:18;2.17;;;1.60;;
297;SDS011;133;49.626;9.680;2023-08-06T14:12:44;1.80;;;1.70;;
297;SDS011;133;49.626;9.680;2023-08-06T14:15:10;1.70;;;1.60;;
297;SDS011;133;49.626;9.680;2023-08-06T14:17:36;3.73;;;2.40;;
297;SDS011;133;49.626;9.680;2023-08-06T14:20:02;1.87;;;1.77;;
297;SDS011;133;49.626;9.680;2023-08-06T14:22:29;1.60;;;1.50;;
297;SDS011;133;49.626;9.680;2023-08-06T14:24:56;1.60;;;1.50;;
297;SDS011;133;49.626;9.680;2023-08-06T14:27:22;1.70;;;1.60;;
297;SDS011;133;49.626;9.680;2023-08-06T14:29:48;2.20;;;1.63;;
297;SDS011;133;49.626;9.680;2023-08-06T14:32:14;1.90;;;1.80;;
297;SDS011;133;49.626;9.680;2023-08-06T14:34:42;1.93;;;1.83;;
297;SDS011;133;49.626;9.680;2023-08-06T14:37:11;1.80;;;1.70;;
297;SDS011;133;49.626;9.680;2023-08-06T14:39:38;1.80;;;1.70;;
297;SDS011;133;49.626;9.680;2023-08-06T14:42:04;1.47;;;1.43;;
297;SDS011;133;49.626;9.680;2023-08-06T14:44:30;1.70;;;1.60;;
297;SDS011;133;49.626;9.680;2023-08-06T14:46:56;1.70;;;1.60;;
297;SDS011;133;49.626;9.680;2023-08-06T14:49:22;2.13;;;1.70;;
297;SDS011;133;49.626;9.680;2023-08-06T14:51:48;1.97;;;1.90;;
297;SDS011;133;49.626;9.680;2023-08-06T14:54:13;1.60;;;1.43;;
297;SDS011;133;49.626;9.680;2023-08-06T14:56:39;2.07;;;1.70;;
297;SDS011;133;49.626;9.680;2023-08-06T14:59:04;1.73;;;1.63;;
297;SDS011;133;49.626;9.680;2023-08-06T15:01:30;1.90;;;1.80;;
297;SDS011;133;49.626;9.680;2023-08-06T15:03:56;1.57;;;1.53;;
297;SDS011;133;49.626;9.680;2023-08-06T15:06:21;4.33;;;1.73;;
297;SDS011;133;49.626;9.680;2023-08-06T15:08:47;1.57;;;1.47;;
297;SDS011;133;49.626;9.680;2023-08-06T15:11:13;1.60;;;1.50;;
297;SDS011;133;49.626;9.680;2023-08-06T15:13:39;1.70;;;1.60;;
297;SDS011;133;49.626;9.680;2023-08-06T15:16:05;1.63;;;1.53;;
297;SDS011;133;49.626;9.680;2023-08-06T15:18:31;1.83;;;1.60;;
297;SDS011;133;49.626;9.680;2023-08-06T15:20:56;1.60;;;1.50;;
297;SDS011;133;49.626;9.680;2023-08-06T15:23:22;1.50;;;1.40;;
297;SDS011;133;49.626;9.680;2023-08-06T15:25:48;5.03;;;1.60;;
297;SDS011;133;49.626;9.680;2023-08-06T15:28:14;1.53;;;1.50;;
297;SDS011;133;49.626;9.680;2023-08-06T15:30:40;2.23;;;1.87;;
297;SDS011;133;49.626;9.680;2023-08-06T15:33:12;1.50;;;1.40;;
297;SDS011;133;49.626;9.680;2023-08-06T15:35:38;4.50;;;2.07;;
297;SDS011;133;49.626;9.680;2023-08-06T15:38:03;1.73;;;1.40;;
297;SDS011;133;49.626;9.680;2023-08-06T15:40:29;1.50;;;1.40;;
297;SDS011;133;49.626;9.680;2023-08-06T15:42:54;1.57;;;1.47;;
297;SDS011;133;49.626;9.680;2023-08-06T15:45:20;1.50;;;1.40;;
297;SDS011;133;49.626;9.680;2023-08-06T15:47:46;1.60;;;1.50;;